createdAt,value
2019-02-08T00:00:04.270Z,66.6
2019-02-08T00:01:13.361Z,66.5
2019-02-08T00:02:22.527Z,66.1
2019-02-08T00:03:31.821Z,65.8
2019-02-08T00:04:41.111Z,65.7
2019-02-08T00:05:50.314Z,66.2
2019-02-08T00:06:59.395Z,66.2
2019-02-08T00:08:08.705Z,65.4
2019-02-08T00:09:17.911Z,65.5
2019-02-08T00:10:27.055Z,66
2019-02-08T00:11:36.369Z,65.5
2019-02-08T00:12:45.416Z,65.3
2019-02-08T00:13:54.730Z,65.8
2019-02-08T00:15:03.921Z,63.9
2019-02-08T00:16:13.205Z,64
2019-02-08T00:17:22.369Z,64.2
2019-02-08T00:18:31.757Z,64.9
2019-02-08T00:19:40.876Z,65.1
2019-02-08T00:20:49.997Z,65.6
2019-02-08T00:21:59.234Z,65.5
2019-02-08T00:23:08.193Z,65.6
2019-02-08T00:24:17.826Z,66
2019-02-08T00:26:36.029Z,65.5
2019-02-08T00:27:45.386Z,65.3
2019-02-08T00:28:54.534Z,66
2019-02-08T00:30:03.865Z,65.7
2019-02-08T00:31:12.961Z,66
2019-02-08T00:32:22.232Z,65.9
2019-02-08T00:33:31.454Z,66.1
2019-02-08T00:34:40.689Z,66.2
2019-02-08T00:35:49.914Z,66.2
2019-02-08T00:36:59.057Z,66.3
2019-02-08T00:38:08.269Z,66.9
2019-02-08T00:39:17.536Z,66.8
2019-02-08T00:40:28.763Z,67
2019-02-08T00:41:35.892Z,67.6
2019-02-08T00:42:45.195Z,67.6
2019-02-08T00:43:54.440Z,67.6
2019-02-08T00:45:03.658Z,67.6
2019-02-08T00:46:12.920Z,67.4
2019-02-08T00:47:22.084Z,67.3
2019-02-08T00:48:31.358Z,67.8
2019-02-08T00:49:40.439Z,67.8
2019-02-08T00:50:49.657Z,68.8
2019-02-08T00:51:58.853Z,68.8
2019-02-08T00:53:08.049Z,68.3
2019-02-08T00:54:17.285Z,67.7
2019-02-08T00:55:26.271Z,67.5
2019-02-08T00:56:35.487Z,67.9
2019-02-08T00:57:44.666Z,68.8
2019-02-08T00:58:53.897Z,68
2019-02-08T01:00:03.491Z,67.4
2019-02-08T01:01:12.339Z,68.1
2019-02-08T01:02:21.562Z,68.4
2019-02-08T01:03:30.764Z,68.2
2019-02-08T01:04:39.953Z,68.8
2019-02-08T01:05:49.222Z,68.8
2019-02-08T01:06:58.370Z,68.9
2019-02-08T01:08:07.663Z,68.8
2019-02-08T01:09:16.793Z,68.8
2019-02-08T01:10:26.015Z,68.8
2019-02-08T01:11:35.286Z,68.8
2019-02-08T01:12:44.489Z,68.7
2019-02-08T01:13:53.721Z,68.8
2019-02-08T01:15:02.874Z,68.8
2019-02-08T01:16:12.116Z,68.8
2019-02-08T01:17:21.293Z,68.8
2019-02-08T01:18:30.499Z,68.7
2019-02-08T01:19:39.731Z,68.8
2019-02-08T01:20:48.918Z,68.8
2019-02-08T01:21:58.139Z,68.8
2019-02-08T01:23:07.373Z,68.8
2019-02-08T01:24:16.551Z,68.8
2019-02-08T01:25:25.773Z,68.8
2019-02-08T01:26:35.024Z,68.8
2019-02-08T01:27:44.187Z,68.8
2019-02-08T01:28:53.398Z,68.7
2019-02-08T01:30:02.607Z,69.8
2019-02-08T01:31:11.843Z,69.3
2019-02-08T01:32:21.119Z,69.9
2019-02-08T01:33:30.278Z,69.6
2019-02-08T01:34:39.482Z,69.2
2019-02-08T01:35:48.677Z,68.9
2019-02-08T01:36:57.940Z,68.7
2019-02-08T01:38:07.108Z,69
2019-02-08T01:39:16.398Z,69.2
2019-02-08T01:40:25.534Z,68.7
2019-02-08T01:41:34.737Z,68.7
2019-02-08T01:42:43.959Z,69.2
2019-02-08T01:43:53.154Z,69.6
2019-02-08T01:45:02.387Z,69.4
2019-02-08T01:46:11.576Z,69.7
2019-02-08T01:47:20.811Z,69.4
2019-02-08T01:48:30.047Z,70.1
2019-02-08T01:49:39.202Z,70.8
2019-02-08T01:50:48.410Z,69.9
2019-02-08T01:51:57.628Z,69.8
2019-02-08T01:53:06.871Z,69.8
2019-02-08T01:54:16.036Z,69.7
2019-02-08T01:55:25.245Z,69.8
2019-02-08T01:56:34.585Z,69.2
2019-02-08T01:57:43.678Z,69.8
2019-02-08T01:58:52.884Z,70.1
2019-02-08T02:00:02.082Z,70.1
2019-02-08T02:01:11.422Z,70.4
2019-02-08T02:02:20.515Z,69.5
2019-02-08T02:03:29.712Z,70.1
2019-02-08T02:04:38.980Z,70
2019-02-08T02:05:48.134Z,69.8
2019-02-08T02:06:57.338Z,70.2
2019-02-08T02:08:06.548Z,70.1
2019-02-08T02:09:15.759Z,70.2
2019-02-08T02:10:24.971Z,71
2019-02-08T02:11:34.184Z,71.3
2019-02-08T02:12:43.398Z,71
2019-02-08T02:13:52.677Z,71.3
2019-02-08T02:15:01.815Z,71.1
2019-02-08T02:16:11.020Z,70.9
2019-02-08T02:17:20.276Z,71
2019-02-08T02:18:29.447Z,71
2019-02-08T02:19:38.667Z,71.3
2019-02-08T02:20:47.910Z,70.9
2019-02-08T02:21:57.052Z,71.4
2019-02-08T02:23:06.266Z,71.6
2019-02-08T02:24:15.539Z,71.3
2019-02-08T02:25:24.669Z,71.3
2019-02-08T02:26:33.872Z,71.6
2019-02-08T02:27:43.153Z,72.6
2019-02-08T02:28:52.295Z,72.9
2019-02-08T02:30:01.695Z,71.8
2019-02-08T02:31:10.706Z,71.7
2019-02-08T02:32:19.957Z,72
2019-02-08T02:33:29.105Z,72.9
2019-02-08T02:34:38.325Z,72.5
2019-02-08T02:35:47.649Z,72.1
2019-02-08T02:36:56.737Z,72.2
2019-02-08T02:38:05.952Z,71.7
2019-02-08T02:39:15.187Z,71.9
2019-02-08T02:40:24.484Z,72.2
2019-02-08T02:41:33.575Z,72.1
2019-02-08T02:42:42.897Z,72.4
2019-02-08T02:43:51.997Z,71.9
2019-02-08T02:45:01.240Z,72.3
2019-02-08T02:46:10.369Z,73.1
2019-02-08T02:47:19.658Z,72.6
2019-02-08T02:48:28.786Z,71.2
2019-02-08T02:49:38.008Z,71.6
2019-02-08T02:50:47.192Z,71.9
2019-02-08T02:51:56.404Z,71.3
2019-02-08T02:53:05.619Z,71.2
2019-02-08T02:54:14.812Z,71.1
2019-02-08T02:55:24.053Z,71
2019-02-08T02:56:33.227Z,71.7
2019-02-08T02:57:42.465Z,71.4
2019-02-08T02:58:51.640Z,70.5
2019-02-08T03:00:00.876Z,70.5
2019-02-08T03:01:10.051Z,70.7
2019-02-08T03:02:19.267Z,71.4
2019-02-08T03:03:28.492Z,71.5
2019-02-08T03:04:37.729Z,71.3
2019-02-08T03:05:46.894Z,71.6
2019-02-08T03:06:56.127Z,71.3
2019-02-08T03:08:05.303Z,71.6
2019-02-08T03:09:14.605Z,71.4
2019-02-08T03:10:23.722Z,71.6
2019-02-08T03:11:32.942Z,71.7
2019-02-08T03:12:42.140Z,71.7
2019-02-08T03:13:51.348Z,71.7
2019-02-08T03:15:00.595Z,71.8
2019-02-08T03:16:09.746Z,71.3
2019-02-08T03:17:18.982Z,71.7
2019-02-08T03:18:28.197Z,71.2
2019-02-08T03:19:37.360Z,71.7
2019-02-08T03:20:48.258Z,71.5
2019-02-08T03:21:57.494Z,72
2019-02-08T03:23:06.742Z,71.3
2019-02-08T03:24:15.885Z,71.6
2019-02-08T03:25:25.139Z,71.3
2019-02-08T03:26:34.291Z,70.7
2019-02-08T03:27:43.537Z,70.5
2019-02-08T03:28:52.710Z,70.6
2019-02-08T03:30:01.943Z,71
2019-02-08T03:31:11.160Z,71.3
2019-02-08T03:32:20.347Z,70.9
2019-02-08T03:33:29.539Z,71.5
2019-02-08T03:34:38.787Z,70.4
2019-02-08T03:35:47.943Z,70.3
2019-02-08T03:36:57.153Z,69.9
2019-02-08T03:38:06.399Z,69.9
2019-02-08T03:39:15.623Z,70.4
2019-02-08T03:40:24.857Z,70.1
2019-02-08T03:41:33.991Z,70.3
2019-02-08T03:42:43.242Z,70
2019-02-08T03:43:52.487Z,69.7
2019-02-08T03:45:01.619Z,69.8
2019-02-08T03:46:10.835Z,70.3
2019-02-08T03:47:20.052Z,70.3
2019-02-08T03:48:29.283Z,70.5
2019-02-08T03:49:38.455Z,70.5
2019-02-08T03:50:47.764Z,70.6
2019-02-08T03:51:56.876Z,70.4
2019-02-08T03:53:06.073Z,70.1
2019-02-08T03:54:21.484Z,70.3
2019-02-08T03:55:24.496Z,70.7
2019-02-08T03:56:33.712Z,70.9
2019-02-08T03:57:42.905Z,71.1
2019-02-08T03:58:52.147Z,70.2
2019-02-08T04:00:01.438Z,70.5
2019-02-08T04:01:10.527Z,69.9
2019-02-08T04:02:19.755Z,69.5
2019-02-08T04:03:28.957Z,70.3
2019-02-08T04:04:38.152Z,70.6
2019-02-08T04:05:47.427Z,70.4
2019-02-08T04:06:56.576Z,70.3
2019-02-08T04:08:05.803Z,70.7
2019-02-08T04:09:15.041Z,70.1
2019-02-08T04:10:24.222Z,70.3
2019-02-08T04:11:33.413Z,71.3
2019-02-08T04:12:42.734Z,72.2
2019-02-08T04:13:51.820Z,71.7
2019-02-08T04:15:01.051Z,71.5
2019-02-08T04:16:10.262Z,71.5
2019-02-08T04:17:19.460Z,70.8
2019-02-08T04:18:28.667Z,70.9
2019-02-08T04:19:37.882Z,71
2019-02-08T04:20:47.093Z,71.5
2019-02-08T04:21:56.289Z,71.3
2019-02-08T04:23:05.551Z,70.7
2019-02-08T04:24:14.823Z,71.1
2019-02-08T04:25:23.921Z,71.5
2019-02-08T04:26:33.129Z,70.9
2019-02-08T04:27:42.348Z,71.7
2019-02-08T04:28:51.562Z,71
2019-02-08T04:30:00.786Z,71.3
2019-02-08T04:31:09.986Z,71.4
2019-02-08T04:32:19.211Z,71.3
2019-02-08T04:33:28.386Z,71.1
2019-02-08T04:34:37.624Z,71.3
2019-02-08T04:35:46.828Z,71
2019-02-08T04:36:56.017Z,71.6
2019-02-08T04:38:05.226Z,72.4
2019-02-08T04:39:14.443Z,71.8
2019-02-08T04:40:23.704Z,72.1
2019-02-08T04:41:32.896Z,71.8
2019-02-08T04:42:42.169Z,72.4
2019-02-08T04:43:51.279Z,72.4
2019-02-08T04:45:00.477Z,72.3
2019-02-08T04:46:09.693Z,71
2019-02-08T04:47:18.906Z,71.5
2019-02-08T04:48:28.111Z,71.5
2019-02-08T04:49:37.357Z,71.8
2019-02-08T04:50:46.536Z,71.3
2019-02-08T04:51:55.769Z,71.5
2019-02-08T04:53:04.955Z,70.4
2019-02-08T04:54:14.175Z,70.3
2019-02-08T04:55:23.546Z,70.7
2019-02-08T04:56:32.682Z,70.8
2019-02-08T04:57:41.858Z,71.9
2019-02-08T04:58:50.994Z,70.9
2019-02-08T05:00:00.283Z,71.4
2019-02-08T05:01:09.413Z,71.9
2019-02-08T05:02:18.635Z,72.2
2019-02-08T05:03:27.870Z,71.7
2019-02-08T05:04:37.033Z,72.8
2019-02-08T05:05:46.304Z,72.5
2019-02-08T05:06:55.474Z,71.8
2019-02-08T05:08:04.750Z,71.5
2019-02-08T05:09:13.887Z,71.6
2019-02-08T05:10:23.096Z,72.3
2019-02-08T05:11:32.328Z,71.8
2019-02-08T05:12:41.567Z,71.7
2019-02-08T05:13:50.719Z,71.7
2019-02-08T05:14:59.940Z,72.4
2019-02-08T05:16:09.153Z,72.2
2019-02-08T05:17:18.370Z,72.4
2019-02-08T05:18:27.663Z,72.6
2019-02-08T05:19:36.836Z,71.9
2019-02-08T05:20:46.007Z,72.1
2019-02-08T05:21:55.189Z,72
2019-02-08T05:23:04.433Z,71.9
2019-02-08T05:24:13.658Z,71.5
2019-02-08T05:25:22.877Z,71.5
2019-02-08T05:26:32.064Z,71.8
2019-02-08T05:27:41.264Z,72.1
2019-02-08T05:28:50.485Z,71.8
2019-02-08T05:29:59.664Z,71.8
2019-02-08T05:31:08.899Z,73
2019-02-08T05:32:18.143Z,73.3
2019-02-08T05:33:27.311Z,73.4
2019-02-08T05:34:36.553Z,73.2
2019-02-08T05:35:45.709Z,72.6
2019-02-08T05:36:54.928Z,73.4
2019-02-08T05:38:04.130Z,72.7
2019-02-08T05:39:13.340Z,72.7
2019-02-08T05:40:22.581Z,72.9
2019-02-08T05:41:31.761Z,73.8
2019-02-08T05:42:41.064Z,73
2019-02-08T05:43:50.176Z,72.6
2019-02-08T05:44:59.402Z,72.7
2019-02-08T05:46:08.613Z,73.8
2019-02-08T05:47:17.801Z,73.4
2019-02-08T05:48:27.002Z,72.9
2019-02-08T05:49:36.223Z,72.8
2019-02-08T05:50:45.411Z,73.1
2019-02-08T05:51:54.619Z,73.6
2019-02-08T05:53:03.844Z,73.4
2019-02-08T05:54:13.093Z,73.1
2019-02-08T05:55:22.257Z,72.1
2019-02-08T05:56:31.518Z,71.7
2019-02-08T05:57:40.663Z,71
2019-02-08T05:58:49.868Z,71.1
2019-02-08T05:59:59.072Z,71.1
2019-02-08T06:01:08.273Z,71.3
2019-02-08T06:02:17.589Z,71.2
2019-02-08T06:03:26.751Z,71
2019-02-08T06:04:35.924Z,71.1
2019-02-08T06:05:45.111Z,70.9
2019-02-08T06:06:54.324Z,71.3
2019-02-08T06:08:03.558Z,71.3
2019-02-08T06:09:12.760Z,71.1
2019-02-08T06:10:22.002Z,71.5
2019-02-08T06:11:33.183Z,71.8
2019-02-08T06:12:40.441Z,71.3
2019-02-08T06:13:49.637Z,71.1
2019-02-08T06:14:58.795Z,71.1
2019-02-08T06:16:08.024Z,71.1
2019-02-08T06:17:17.248Z,70.7
2019-02-08T06:18:26.520Z,72
2019-02-08T06:19:35.647Z,71.5
2019-02-08T06:20:44.850Z,71.5
2019-02-08T06:21:54.190Z,71.4
2019-02-08T06:23:03.280Z,71.5
2019-02-08T06:24:12.519Z,71.8
2019-02-08T06:25:21.725Z,71.5
2019-02-08T06:26:30.904Z,71.3
2019-02-08T06:27:40.138Z,71.3
2019-02-08T06:28:49.397Z,71.2
2019-02-08T06:29:58.590Z,71.3
2019-02-08T06:31:07.761Z,71
2019-02-08T06:32:16.965Z,71.1
2019-02-08T06:33:26.187Z,71.1
2019-02-08T06:34:35.408Z,73.6
2019-02-08T06:35:44.605Z,71.4
2019-02-08T06:36:53.819Z,71.4
2019-02-08T06:38:03.026Z,71.6
2019-02-08T06:39:12.401Z,71.3
2019-02-08T06:40:21.448Z,71.4
2019-02-08T06:41:30.670Z,72.1
2019-02-08T06:42:39.879Z,71.8
2019-02-08T06:43:49.273Z,72
2019-02-08T06:44:58.297Z,72.5
2019-02-08T06:46:07.517Z,72
2019-02-08T06:47:16.713Z,72.2
2019-02-08T06:48:25.921Z,72.1
2019-02-08T06:49:35.134Z,71.9
2019-02-08T06:50:44.360Z,72.2
2019-02-08T06:51:53.566Z,72.2
2019-02-08T06:53:02.781Z,72.8
2019-02-08T06:54:12.130Z,72.9
2019-02-08T06:55:21.201Z,72.1
2019-02-08T06:56:30.460Z,72
2019-02-08T06:57:39.623Z,72.1
2019-02-08T06:58:48.838Z,72.8
2019-02-08T06:59:58.078Z,72.6
2019-02-08T07:01:07.265Z,72.4
2019-02-08T07:02:16.549Z,72.3
2019-02-08T07:03:25.693Z,72.2
2019-02-08T07:04:34.913Z,71.7
2019-02-08T07:05:44.149Z,71.7
2019-02-08T07:06:53.333Z,72
2019-02-08T07:08:02.603Z,72.4
2019-02-08T07:09:11.808Z,71.8
2019-02-08T07:10:20.991Z,71.8
2019-02-08T07:11:30.246Z,71.7
2019-02-08T07:12:39.421Z,71
2019-02-08T07:13:48.658Z,71
2019-02-08T07:14:57.942Z,71.1
2019-02-08T07:16:07.124Z,70.6
2019-02-08T07:17:16.492Z,70.6
2019-02-08T07:18:25.513Z,70.6
2019-02-08T07:19:34.846Z,70.3
2019-02-08T07:20:43.975Z,69.4
2019-02-08T07:21:53.174Z,70
2019-02-08T07:23:02.450Z,69.1
2019-02-08T07:24:11.620Z,69.3
2019-02-08T07:25:20.939Z,69
2019-02-08T07:26:30.050Z,69
2019-02-08T07:27:39.258Z,69
2019-02-08T07:28:48.473Z,69
2019-02-08T07:29:57.770Z,68.2
2019-02-08T07:31:06.924Z,68.6
2019-02-08T07:32:16.196Z,67.1
2019-02-08T07:33:25.368Z,67.5
2019-02-08T07:34:34.591Z,69.2
2019-02-08T07:35:43.822Z,66.8
2019-02-08T07:36:53.028Z,66.6
2019-02-08T07:38:02.347Z,65.7
2019-02-08T07:39:11.509Z,65.4
2019-02-08T07:40:20.710Z,64.9
2019-02-08T07:41:30.035Z,64.2
2019-02-08T07:42:39.168Z,63.4
2019-02-08T07:43:48.430Z,64.1
2019-02-08T07:44:57.638Z,62.6
2019-02-08T07:46:07.034Z,62
2019-02-08T07:47:16.126Z,62.2
2019-02-08T07:48:25.352Z,61.9
2019-02-08T07:49:34.592Z,62
2019-02-08T07:50:43.876Z,60
2019-02-08T07:51:53.044Z,59
2019-02-08T07:53:02.328Z,59
2019-02-08T07:54:11.671Z,58.4
2019-02-08T07:55:26.381Z,58.1
2019-02-08T07:56:30.123Z,58.4
2019-02-08T07:57:39.294Z,57
2019-02-08T07:58:48.531Z,59
2019-02-08T07:59:57.874Z,60.9
2019-02-08T08:01:07.015Z,60.1
2019-02-08T08:02:16.327Z,60.1
2019-02-08T08:03:25.510Z,60.7
2019-02-08T08:04:34.771Z,59.7
2019-02-08T08:05:44.029Z,59
2019-02-08T08:06:53.277Z,59.8
2019-02-08T08:08:02.630Z,59
2019-02-08T08:09:11.763Z,59
2019-02-08T08:10:21.056Z,59.1
2019-02-08T08:11:30.254Z,59
2019-02-08T08:12:39.622Z,59
2019-02-08T08:13:48.787Z,59.5
2019-02-08T08:14:57.999Z,59
2019-02-08T08:16:07.255Z,59
2019-02-08T08:17:16.511Z,59
2019-02-08T08:18:25.793Z,59.1
2019-02-08T08:19:35.090Z,58.5
2019-02-08T08:20:44.370Z,59
2019-02-08T08:21:53.534Z,58
2019-02-08T08:23:02.779Z,57.5
2019-02-08T08:24:12.068Z,58
2019-02-08T08:25:21.283Z,58.3
2019-02-08T08:26:30.554Z,57.3
2019-02-08T08:27:39.826Z,57.3
2019-02-08T08:28:49.096Z,56.7
2019-02-08T08:29:58.325Z,57.3
2019-02-08T08:31:07.577Z,56.5
2019-02-08T08:32:16.827Z,56.5
2019-02-08T08:33:26.227Z,55.9
2019-02-08T08:34:35.356Z,56.6
2019-02-08T08:35:44.632Z,56.6
2019-02-08T08:36:53.923Z,56.1
2019-02-08T08:38:03.101Z,57
2019-02-08T08:39:12.378Z,56.8
2019-02-08T08:40:21.617Z,55.5
2019-02-08T08:41:30.893Z,53.8
2019-02-08T08:42:40.202Z,53.5
2019-02-08T08:43:49.416Z,52.7
2019-02-08T08:44:58.708Z,52.4
2019-02-08T08:46:07.931Z,51.8
2019-02-08T08:47:17.190Z,50.5
2019-02-08T08:48:26.432Z,50.5
2019-02-08T08:49:35.699Z,52.2
2019-02-08T08:50:44.966Z,52
2019-02-08T08:51:54.238Z,49.5
2019-02-08T08:53:03.523Z,48.2
2019-02-08T08:54:12.766Z,48.1
2019-02-08T08:55:22.058Z,47.4
2019-02-08T08:56:31.465Z,47.1
2019-02-08T08:57:40.565Z,43.5
2019-02-08T08:58:49.913Z,43.4
2019-02-08T08:59:59.301Z,44.7
2019-02-08T09:01:08.431Z,43.5
2019-02-08T09:02:17.678Z,45.1
2019-02-08T09:03:26.980Z,44.5
2019-02-08T09:04:36.259Z,45.2
2019-02-08T09:05:45.541Z,45
2019-02-08T09:06:54.860Z,46
2019-02-08T09:08:04.116Z,45.3
2019-02-08T09:09:13.413Z,45.8
2019-02-08T09:10:22.713Z,45.1
2019-02-08T09:11:31.986Z,43.5
2019-02-08T09:12:41.459Z,42.7
2019-02-08T09:13:50.577Z,40.7
2019-02-08T09:14:59.894Z,40.3
2019-02-08T09:16:09.167Z,40
2019-02-08T09:17:18.644Z,40.7
2019-02-08T09:18:27.768Z,41.4
2019-02-08T09:19:37.053Z,39.8
2019-02-08T09:20:46.389Z,38.8
2019-02-08T09:21:55.649Z,38.2
2019-02-08T09:23:04.959Z,38.2
2019-02-08T09:24:14.256Z,38.2
2019-02-08T09:25:23.606Z,38.2
2019-02-08T09:26:32.945Z,38.1
2019-02-08T09:27:42.234Z,37.1
2019-02-08T09:28:51.453Z,36.6
2019-02-08T09:30:00.758Z,36.9
2019-02-08T09:31:10.053Z,37.3
2019-02-08T09:32:19.370Z,35.3
2019-02-08T09:33:28.668Z,34.6
2019-02-08T09:34:38.072Z,35.3
2019-02-08T09:35:47.331Z,36.5
2019-02-08T09:36:56.616Z,35.7
2019-02-08T09:38:05.916Z,36.9
2019-02-08T09:39:15.354Z,36.1
2019-02-08T09:40:24.538Z,35.2
2019-02-08T09:41:33.846Z,36.2
2019-02-08T09:42:43.198Z,36.5
2019-02-08T09:43:52.475Z,35.6
2019-02-08T09:45:01.795Z,34.1
2019-02-08T09:46:11.115Z,34.5
2019-02-08T09:47:20.412Z,33.5
2019-02-08T09:48:29.907Z,34.2
2019-02-08T09:49:39.075Z,32.9
2019-02-08T09:50:48.356Z,32.7
2019-02-08T09:51:57.687Z,32.7
2019-02-08T09:53:06.995Z,32.8
2019-02-08T09:54:16.462Z,33.1
2019-02-08T09:55:25.645Z,32.1
2019-02-08T09:56:35.010Z,32.3
2019-02-08T09:57:44.284Z,32.1
2019-02-08T09:58:53.601Z,32.4
2019-02-08T10:00:02.941Z,32.5
2019-02-08T10:01:12.262Z,30.6
2019-02-08T10:02:21.675Z,29.7
2019-02-08T10:03:30.932Z,29.8
2019-02-08T10:04:40.242Z,29
2019-02-08T10:05:49.586Z,29
2019-02-08T10:06:58.919Z,29.9
2019-02-08T10:08:08.282Z,30.3
2019-02-08T10:09:17.621Z,29.9
2019-02-08T10:10:26.912Z,30.6
2019-02-08T10:11:36.253Z,29.5
2019-02-08T10:12:45.615Z,30.2
2019-02-08T10:13:54.944Z,30.3
2019-02-08T10:15:04.299Z,29.9
2019-02-08T10:16:13.624Z,29.9
2019-02-08T10:17:22.963Z,30.8
2019-02-08T10:18:32.352Z,28.5
2019-02-08T10:19:41.706Z,30.2
2019-02-08T10:20:51.007Z,30.3
2019-02-08T10:22:00.383Z,28.7
2019-02-08T10:23:09.697Z,29.3
2019-02-08T10:24:19.089Z,29.6
2019-02-08T10:25:28.394Z,29.9
2019-02-08T10:26:37.931Z,30.9
2019-02-08T10:27:47.144Z,29.1
2019-02-08T10:28:56.523Z,29.3
2019-02-08T10:30:05.817Z,30.6
2019-02-08T10:31:15.176Z,31.9
2019-02-08T10:32:24.519Z,31
2019-02-08T10:33:33.919Z,31.8
2019-02-08T10:34:43.234Z,28.4
2019-02-08T10:35:52.603Z,29.4
2019-02-08T10:37:01.953Z,29.3
2019-02-08T10:38:11.429Z,28.5
2019-02-08T10:39:20.715Z,29.8
2019-02-08T10:40:30.051Z,30.4
2019-02-08T10:41:39.471Z,31
2019-02-08T10:42:48.815Z,32.8
2019-02-08T10:43:58.153Z,33
2019-02-08T10:45:07.524Z,32.9
2019-02-08T10:46:16.885Z,30.8
2019-02-08T10:47:26.251Z,30.5
2019-02-08T10:48:35.620Z,30.4
2019-02-08T10:49:44.994Z,31.6
2019-02-08T10:50:54.354Z,32
2019-02-08T10:52:03.769Z,30.3
2019-02-08T10:53:13.171Z,30.9
2019-02-08T10:54:22.459Z,32.9
2019-02-08T10:55:31.834Z,32.8
2019-02-08T10:56:41.279Z,33.1
2019-02-08T10:57:50.534Z,32.1
2019-02-08T10:58:59.881Z,30.7
2019-02-08T11:00:09.245Z,31.7
2019-02-08T11:01:18.614Z,32.3
2019-02-08T11:02:28.066Z,32.9
2019-02-08T11:03:37.329Z,32.9
2019-02-08T11:04:46.703Z,32.3
2019-02-08T11:05:56.056Z,30.4
2019-02-08T11:07:05.530Z,30.9
2019-02-08T11:08:14.767Z,30.9
2019-02-08T11:09:24.171Z,32.9
2019-02-08T11:10:33.483Z,32.8
2019-02-08T11:11:43.140Z,32.9
2019-02-08T11:12:52.229Z,33
2019-02-08T11:14:01.751Z,32.9
2019-02-08T11:15:10.903Z,32.2
2019-02-08T11:16:20.403Z,31.6
2019-02-08T11:17:29.624Z,32.9
2019-02-08T11:18:38.981Z,32.9
2019-02-08T11:19:48.380Z,32.9
2019-02-08T11:20:57.717Z,32.9
2019-02-08T11:22:07.035Z,33
2019-02-08T11:23:16.472Z,32.7
2019-02-08T11:24:25.763Z,32.9
2019-02-08T11:25:35.114Z,31.7
2019-02-08T11:26:44.455Z,31.3
2019-02-08T11:27:53.855Z,31.2
2019-02-08T11:29:03.197Z,31.5
2019-02-08T11:30:12.538Z,32.1
2019-02-08T11:31:21.971Z,31.2
2019-02-08T11:32:43.675Z,31.1
2019-02-08T11:33:40.597Z,30.9
2019-02-08T11:34:49.961Z,31.1
2019-02-08T11:35:59.523Z,30.4
2019-02-08T11:37:08.669Z,30
2019-02-08T11:38:18.023Z,31.5
2019-02-08T11:39:27.391Z,32.9
2019-02-08T11:40:36.751Z,31.9
2019-02-08T11:41:46.234Z,31.4
2019-02-08T11:42:55.445Z,31
2019-02-08T11:44:04.871Z,31.3
2019-02-08T11:45:14.200Z,32.9
2019-02-08T11:46:23.749Z,33.3
2019-02-08T11:47:32.874Z,32.5
2019-02-08T11:48:42.227Z,32.5
2019-02-08T11:49:51.591Z,32
2019-02-08T11:51:00.979Z,32
2019-02-08T11:52:10.351Z,32.6
2019-02-08T11:53:19.730Z,32.2
2019-02-08T11:54:29.031Z,32.8
2019-02-08T11:55:38.380Z,31.6
2019-02-08T11:56:47.774Z,31
2019-02-08T11:57:57.148Z,30.8
2019-02-08T11:59:06.597Z,31
2019-02-08T12:00:15.791Z,30.6
2019-02-08T12:01:25.156Z,30.5
2019-02-08T12:02:40.770Z,31
2019-02-08T12:03:43.895Z,30.7
2019-02-08T12:04:53.235Z,31.1
2019-02-08T12:06:02.917Z,30.7
2019-02-08T12:07:11.952Z,30.3
2019-02-08T12:08:21.322Z,30.5
2019-02-08T12:09:30.675Z,31.5
2019-02-08T12:10:40.052Z,31.9
2019-02-08T12:11:49.396Z,32.1
2019-02-08T12:12:58.784Z,32
2019-02-08T12:14:08.135Z,31.2
2019-02-08T12:15:17.549Z,30.8
2019-02-08T12:16:26.840Z,31.6
2019-02-08T12:17:36.228Z,31.5
2019-02-08T12:18:45.556Z,30.8
2019-02-08T12:19:54.922Z,29.9
2019-02-08T12:21:04.302Z,31.1
2019-02-08T12:22:13.645Z,31.6
2019-02-08T12:23:23.015Z,30.5
2019-02-08T12:24:32.402Z,31.4
2019-02-08T12:25:41.883Z,31.3
2019-02-08T12:26:51.127Z,31.9
2019-02-08T12:28:00.483Z,32.2
2019-02-08T12:29:09.814Z,30.9
2019-02-08T12:30:19.181Z,30.3
2019-02-08T12:31:28.566Z,30.2
2019-02-08T12:32:37.953Z,31.5
2019-02-08T12:33:47.349Z,31.5
2019-02-08T12:34:56.627Z,31.2
2019-02-08T12:36:06.092Z,31.7
2019-02-08T12:37:15.345Z,31.4
2019-02-08T12:38:24.730Z,31.8
2019-02-08T12:39:34.101Z,31.3
2019-02-08T12:40:43.567Z,32.1
2019-02-08T12:41:52.826Z,31.5
2019-02-08T12:43:02.173Z,31.7
2019-02-08T12:44:11.570Z,31.9
2019-02-08T12:45:20.858Z,32
2019-02-08T12:46:30.304Z,32.7
2019-02-08T12:47:39.589Z,32.6
2019-02-08T12:48:48.937Z,32.2
2019-02-08T12:49:58.296Z,32.1
2019-02-08T12:51:07.642Z,32.6
2019-02-08T12:52:17.172Z,32.5
2019-02-08T12:53:26.378Z,33
2019-02-08T12:54:35.757Z,32.8
2019-02-08T12:55:45.181Z,32.9
2019-02-08T12:56:54.699Z,32.1
2019-02-08T12:58:03.790Z,32.2
2019-02-08T12:59:13.141Z,31.7
2019-02-08T13:00:22.535Z,32.6
2019-02-08T13:01:38.042Z,33.2
2019-02-08T13:02:41.382Z,32.9
2019-02-08T13:03:50.571Z,32.4
2019-02-08T13:04:59.969Z,31.8
2019-02-08T13:06:09.308Z,31.8
2019-02-08T13:07:18.634Z,33.4
2019-02-08T13:08:28.008Z,32.1
2019-02-08T13:09:37.358Z,32.4
2019-02-08T13:10:46.780Z,32.5
2019-02-08T13:11:56.047Z,31.8
2019-02-08T13:13:05.409Z,31.5
2019-02-08T13:14:14.796Z,31.4
2019-02-08T13:15:24.132Z,31.9
2019-02-08T13:16:33.661Z,33
2019-02-08T13:17:42.846Z,31.8
2019-02-08T13:18:52.357Z,31.8
2019-02-08T13:20:01.580Z,32.1
2019-02-08T13:21:11.053Z,32.4
2019-02-08T13:22:20.359Z,32.1
2019-02-08T13:23:29.649Z,32.2
2019-02-08T13:24:38.992Z,32
2019-02-08T13:25:48.358Z,32.1
2019-02-08T13:26:57.728Z,32.4
2019-02-08T13:28:07.081Z,32.8
2019-02-08T13:29:16.451Z,33.5
2019-02-08T13:30:25.810Z,33.6
2019-02-08T13:31:35.175Z,32.8
2019-02-08T13:32:44.615Z,33.5
2019-02-08T13:33:53.900Z,33.3
2019-02-08T13:35:03.371Z,33.9
2019-02-08T13:36:12.788Z,33.9
2019-02-08T13:37:23.627Z,33.4
2019-02-08T13:38:33.036Z,33.6
2019-02-08T13:39:42.302Z,33.5
2019-02-08T13:40:51.618Z,33.6
2019-02-08T13:42:01.088Z,32.3
2019-02-08T13:43:10.379Z,31.8
2019-02-08T13:44:19.718Z,32.4
2019-02-08T13:45:29.087Z,31.3
2019-02-08T13:46:38.465Z,32.1
2019-02-08T13:47:47.811Z,32.3
2019-02-08T13:48:57.188Z,32.7
2019-02-08T13:50:06.630Z,33.5
2019-02-08T13:51:16.005Z,33.6
2019-02-08T13:52:26.165Z,33.6
2019-02-08T13:53:34.662Z,33.6
2019-02-08T13:54:44.325Z,33.6
2019-02-08T13:55:53.489Z,33.6
2019-02-08T13:57:02.806Z,33.5
2019-02-08T13:58:12.119Z,33.5
2019-02-08T13:59:21.508Z,33.6
2019-02-08T14:00:30.914Z,33.6
2019-02-08T14:01:40.258Z,33.5
2019-02-08T14:02:49.679Z,33.5
2019-02-08T14:03:58.925Z,33.9
2019-02-08T14:05:08.285Z,33.5
2019-02-08T14:06:17.696Z,33.7
2019-02-08T14:07:27.012Z,33.6
2019-02-08T14:08:36.357Z,33.6
2019-02-08T14:09:45.727Z,33.8
2019-02-08T14:10:55.073Z,33.6
2019-02-08T14:12:04.447Z,32.9
2019-02-08T14:13:13.795Z,32.3
2019-02-08T14:14:23.161Z,32.1
2019-02-08T14:15:32.579Z,31.4
2019-02-08T14:16:42.365Z,31.4
2019-02-08T14:17:51.244Z,30.9
2019-02-08T14:19:00.606Z,30.6
2019-02-08T14:20:10.049Z,30.5
2019-02-08T14:21:19.326Z,30.9
2019-02-08T14:22:28.707Z,31
2019-02-08T14:23:38.100Z,30.5
2019-02-08T14:24:47.611Z,30.7
2019-02-08T14:25:56.844Z,30.5
2019-02-08T14:27:08.928Z,30
2019-02-08T14:28:15.581Z,30.7
2019-02-08T14:29:24.947Z,30.6
2019-02-08T14:30:35.333Z,30.1
2019-02-08T14:31:45.059Z,30.4
2019-02-08T14:32:53.977Z,30.5
2019-02-08T14:34:03.326Z,30.8
2019-02-08T14:35:13.115Z,31
2019-02-08T14:36:22.059Z,31.3
2019-02-08T14:37:31.490Z,30.7
2019-02-08T14:38:40.796Z,30.9
2019-02-08T14:39:50.125Z,31
2019-02-08T14:40:59.522Z,30.7
2019-02-08T14:42:08.857Z,30.1
2019-02-08T14:43:18.226Z,30
2019-02-08T14:44:27.586Z,30.3
2019-02-08T14:45:36.936Z,30.9
2019-02-08T14:46:46.728Z,31.5
2019-02-08T14:47:55.682Z,32.1
2019-02-08T14:49:04.986Z,31.6
2019-02-08T14:50:14.384Z,31.7
2019-02-08T14:51:23.719Z,32.4
2019-02-08T14:52:33.090Z,32.4
2019-02-08T14:53:42.424Z,32.9
2019-02-08T14:54:51.785Z,32.3
2019-02-08T14:56:01.113Z,32.5
2019-02-08T14:57:17.089Z,33.2
2019-02-08T14:58:19.810Z,32.8
2019-02-08T14:59:29.141Z,32.9
2019-02-08T15:00:38.635Z,33.4
2019-02-08T15:01:47.836Z,33.4
2019-02-08T15:02:57.246Z,33.4
2019-02-08T15:04:08.051Z,33.4
2019-02-08T15:05:15.923Z,33.4
2019-02-08T15:06:25.218Z,33.4
2019-02-08T15:07:34.558Z,33
2019-02-08T15:08:43.896Z,33.5
2019-02-08T15:09:53.241Z,33.4
2019-02-08T15:11:02.689Z,33.5
2019-02-08T15:12:11.999Z,33.4
2019-02-08T15:13:21.292Z,33.5
2019-02-08T15:14:30.606Z,33.4
2019-02-08T15:15:39.943Z,33.4
2019-02-08T15:16:49.463Z,33.4
2019-02-08T15:17:58.656Z,33.3
2019-02-08T15:19:08.075Z,33.2
2019-02-08T15:20:17.351Z,33.4
2019-02-08T15:21:26.777Z,33.3
2019-02-08T15:22:36.008Z,33.3
2019-02-08T15:23:45.365Z,33.4
2019-02-08T15:24:54.696Z,33.2
2019-02-08T15:26:04.027Z,33.3
2019-02-08T15:27:13.377Z,33.3
2019-02-08T15:28:22.735Z,33.3
2019-02-08T15:29:32.058Z,33.3